createdAt,value
2018-04-30T09:16:36.091Z,4393.13
2018-04-30T09:17:36.089Z,4567.50
2018-04-30T09:18:36.091Z,4635.00
2018-04-30T09:19:36.099Z,4663.13
2018-04-30T09:20:36.094Z,4725.00
2018-04-30T09:21:36.096Z,4741.88
2018-04-30T09:22:36.097Z,4860.00
2018-04-30T09:23:36.101Z,4809.38
2018-04-30T09:24:36.102Z,4944.38
2018-04-30T09:25:36.104Z,4983.75
2018-04-30T09:26:36.104Z,5023.13
2018-04-30T09:27:36.116Z,5011.88
2018-04-30T09:28:36.116Z,5000.63
2018-04-30T09:29:36.108Z,4910.63
2018-04-30T09:30:36.117Z,4865.63
2018-04-30T09:31:36.119Z,4815.00
2018-04-30T09:32:36.117Z,4820.63
2018-04-30T09:33:36.125Z,4950.00
2018-04-30T09:34:36.118Z,4865.63
2018-04-30T09:35:36.121Z,3723.75
2018-04-30T09:36:36.123Z,2953.13
2018-04-30T09:37:36.125Z,3341.25
2018-04-30T09:38:36.128Z,3262.50
2018-04-30T09:39:36.130Z,4831.88
2018-04-30T09:40:36.131Z,4950.00
2018-04-30T09:41:36.135Z,5158.13
2018-04-30T09:42:36.142Z,4865.63
2018-04-30T09:43:36.140Z,4933.13
2018-04-30T09:44:36.144Z,5180.63
2018-04-30T09:45:36.145Z,5135.63
2018-04-30T09:46:36.150Z,5068.13
2018-04-30T09:47:36.170Z,5011.88
2018-04-30T09:48:36.163Z,4955.63
2018-04-30T09:49:36.154Z,4989.38
2018-04-30T09:50:36.160Z,4966.88
2018-04-30T09:51:36.161Z,5017.50
2018-04-30T09:52:36.163Z,4893.75
2018-04-30T09:53:36.165Z,5000.63
2018-04-30T09:54:36.173Z,5023.13
2018-04-30T09:55:36.188Z,4089.38
2018-04-30T09:56:36.176Z,4995.00
2018-04-30T09:57:36.184Z,5023.13
2018-04-30T09:58:36.177Z,5107.50
2018-04-30T09:59:36.192Z,5259.38
2018-04-30T10:00:36.189Z,5338.13
2018-04-30T10:01:36.189Z,5203.13
2018-04-30T10:02:36.190Z,5085.00
2018-04-30T10:03:36.191Z,5118.75
2018-04-30T10:04:36.199Z,5130.00
2018-04-30T10:05:36.196Z,5101.88
2018-04-30T10:06:36.199Z,5118.75
2018-04-30T10:07:36.204Z,5175.00
2018-04-30T10:08:36.206Z,5231.25
2018-04-30T10:09:36.211Z,5175.00
2018-04-30T10:10:36.212Z,5146.88
2018-04-30T10:11:36.214Z,2210.63
2018-04-30T10:12:36.220Z,5225.63
2018-04-30T10:13:36.219Z,5197.50
2018-04-30T10:14:36.232Z,5315.63
2018-04-30T10:15:36.225Z,5220.00
2018-04-30T10:16:36.227Z,2351.25
2018-04-30T10:17:36.235Z,2340.00
2018-04-30T10:18:36.232Z,1226.25
2018-04-30T10:19:36.238Z,5107.50
2018-04-30T10:20:36.237Z,3729.38
2018-04-30T10:21:36.239Z,4106.25
2018-04-30T10:22:36.241Z,4128.75
2018-04-30T10:23:36.409Z,4275.00
2018-04-30T10:24:36.245Z,3729.38
2018-04-30T10:25:36.248Z,1867.50
2018-04-30T10:26:36.252Z,4978.13
2018-04-30T10:27:36.253Z,4561.88
2018-04-30T10:28:36.340Z,1366.88
2018-04-30T10:29:36.259Z,1861.88
2018-04-30T10:30:36.260Z,2075.63
2018-04-30T10:31:36.289Z,1001.25
2018-04-30T10:32:36.268Z,838.13
2018-04-30T10:33:36.264Z,585.00
2018-04-30T10:34:36.266Z,545.63
2018-04-30T10:35:36.272Z,776.25
2018-04-30T10:36:36.273Z,736.88
2018-04-30T10:37:36.273Z,765.00
2018-04-30T10:38:36.275Z,877.50
2018-04-30T10:39:36.274Z,821.25
2018-04-30T10:40:36.295Z,877.50
2018-04-30T10:41:36.271Z,1018.13
2018-04-30T10:42:36.278Z,888.75
2018-04-30T10:43:36.272Z,849.38
2018-04-30T10:44:36.281Z,787.50
2018-04-30T10:45:36.272Z,1226.25
2018-04-30T10:46:36.272Z,1575.00
2018-04-30T10:47:36.274Z,1710.00
2018-04-30T10:48:36.272Z,1603.13
2018-04-30T10:49:36.269Z,2430.00
2018-04-30T10:50:36.272Z,5023.13
2018-04-30T10:51:36.303Z,4185.00
2018-04-30T10:52:36.270Z,2356.88
2018-04-30T10:53:36.358Z,1710.00
2018-04-30T10:54:36.266Z,1906.88
2018-04-30T10:55:36.268Z,3633.75
2018-04-30T10:56:36.267Z,1485.00
2018-04-30T10:57:36.264Z,1170.00
2018-04-30T10:58:36.270Z,1057.50
2018-04-30T10:59:36.262Z,1113.75
2018-04-30T11:00:36.262Z,1051.88
2018-04-30T11:01:36.260Z,1074.38
2018-04-30T11:02:36.293Z,1113.75
2018-04-30T11:03:36.267Z,1029.38
2018-04-30T11:04:36.261Z,2221.88
2018-04-30T11:05:36.260Z,3335.63
2018-04-30T11:06:36.254Z,1659.38
2018-04-30T11:07:36.254Z,1501.88
2018-04-30T11:08:36.254Z,1136.25
2018-04-30T11:09:36.254Z,1344.38
2018-04-30T11:10:36.252Z,1861.88
2018-04-30T11:11:36.245Z,3566.25
2018-04-30T11:12:36.252Z,916.88
2018-04-30T11:13:36.258Z,540.00
2018-04-30T11:14:36.240Z,545.63
2018-04-30T11:15:36.242Z,517.50
2018-04-30T11:16:36.235Z,500.63
2018-04-30T11:17:36.234Z,438.75
2018-04-30T11:18:36.231Z,399.38
2018-04-30T11:19:36.235Z,365.63
2018-04-30T11:20:36.226Z,376.88
2018-04-30T11:21:36.222Z,421.88
2018-04-30T11:22:36.219Z,495.00
2018-04-30T11:23:36.218Z,540.00
2018-04-30T11:24:36.213Z,500.63
2018-04-30T11:25:36.208Z,472.50
2018-04-30T11:26:36.207Z,472.50
2018-04-30T11:27:36.279Z,506.25
2018-04-30T11:28:36.197Z,568.13
2018-04-30T11:29:36.194Z,624.38
2018-04-30T11:30:36.192Z,703.13
2018-04-30T11:31:36.184Z,855.00
2018-04-30T11:32:36.183Z,826.88
2018-04-30T11:33:36.181Z,804.38
2018-04-30T11:34:36.173Z,810.00
2018-04-30T11:35:36.170Z,810.00
2018-04-30T11:36:36.165Z,720.00
2018-04-30T11:37:36.159Z,669.38
2018-04-30T11:38:36.154Z,810.00
2018-04-30T11:39:36.154Z,928.13
2018-04-30T11:40:36.145Z,855.00
2018-04-30T11:41:36.139Z,967.50
2018-04-30T11:42:36.135Z,1209.38
2018-04-30T11:43:36.138Z,1186.88
2018-04-30T11:44:36.125Z,1243.13
2018-04-30T11:45:36.123Z,1282.50
2018-04-30T11:46:36.118Z,1164.38
2018-04-30T11:47:36.112Z,1023.75
2018-04-30T11:48:36.105Z,826.88
2018-04-30T11:49:36.099Z,635.63
2018-04-30T11:50:36.092Z,523.13
2018-04-30T11:51:36.087Z,500.63
2018-04-30T11:52:36.094Z,545.63
2018-04-30T11:53:36.078Z,517.50
2018-04-30T11:54:36.074Z,416.25
2018-04-30T11:55:36.072Z,365.63
2018-04-30T11:56:36.063Z,388.13
2018-04-30T11:57:36.055Z,421.88
2018-04-30T11:58:36.134Z,388.13
2018-04-30T11:59:36.043Z,354.38
2018-04-30T12:00:36.038Z,360.00
2018-04-30T12:01:36.033Z,500.63
2018-04-30T12:02:36.034Z,618.75
2018-04-30T12:03:36.022Z,748.13
2018-04-30T12:04:36.014Z,860.63
2018-04-30T12:05:36.009Z,759.38
2018-04-30T12:06:36.003Z,826.88
2018-04-30T12:07:35.995Z,1068.75
2018-04-30T12:08:35.991Z,877.50
2018-04-30T12:09:35.983Z,804.38
2018-04-30T12:10:35.979Z,810.00
2018-04-30T12:11:35.975Z,787.50
2018-04-30T12:12:35.963Z,2835.00
2018-04-30T12:13:35.960Z,646.88
2018-04-30T12:14:35.955Z,590.63
2018-04-30T12:15:35.947Z,545.63
2018-04-30T12:16:36.012Z,461.25
2018-04-30T12:17:35.934Z,388.13
2018-04-30T12:18:35.928Z,371.25
2018-04-30T12:19:35.924Z,399.38
2018-04-30T12:20:35.917Z,393.75
2018-04-30T12:21:35.909Z,365.63
2018-04-30T12:22:35.902Z,382.50
2018-04-30T12:23:35.897Z,405.00
2018-04-30T12:24:35.891Z,455.63
2018-04-30T12:25:35.885Z,579.38
2018-04-30T12:26:35.876Z,652.50
2018-04-30T12:27:35.870Z,686.25
2018-04-30T12:28:35.870Z,714.38
2018-04-30T12:29:35.857Z,680.63
2018-04-30T12:30:35.847Z,534.38
2018-04-30T12:31:35.847Z,427.50
2018-04-30T12:32:35.837Z,365.63
2018-04-30T12:33:35.838Z,320.63
2018-04-30T12:34:35.825Z,315.00
2018-04-30T12:35:35.814Z,337.50
2018-04-30T12:36:35.807Z,348.75
2018-04-30T12:37:35.808Z,360.00
2018-04-30T12:38:35.792Z,382.50
2018-04-30T12:39:35.785Z,421.88
2018-04-30T12:40:35.777Z,483.75
2018-04-30T12:41:35.769Z,573.75
2018-04-30T12:42:35.763Z,900.00
2018-04-30T12:43:35.763Z,1068.75
2018-04-30T12:44:35.747Z,978.75
2018-04-30T12:45:35.737Z,1102.50
2018-04-30T12:46:35.729Z,1113.75
2018-04-30T12:47:35.723Z,1625.63
2018-04-30T12:48:35.716Z,4792.50
2018-04-30T12:49:35.721Z,5636.25
2018-04-30T12:50:35.698Z,4725.00
2018-04-30T12:51:35.701Z,2115.00
2018-04-30T12:52:35.684Z,1170.00
2018-04-30T12:53:35.678Z,990.00
2018-04-30T12:54:35.671Z,1310.63
2018-04-30T12:55:35.663Z,3228.75
2018-04-30T12:56:35.673Z,4511.25
2018-04-30T12:57:35.648Z,708.75
2018-04-30T12:58:35.645Z,2559.38
2018-04-30T12:59:35.636Z,1552.50
2018-04-30T13:00:35.632Z,1282.50
2018-04-30T13:01:35.631Z,1074.38
2018-04-30T13:02:35.685Z,1091.25
2018-04-30T13:03:35.612Z,1057.50
2018-04-30T13:04:35.610Z,905.63
2018-04-30T13:05:35.601Z,978.75
2018-04-30T13:06:35.593Z,1170.00
2018-04-30T13:07:35.584Z,1305.00
2018-04-30T13:08:35.581Z,1490.63
2018-04-30T13:09:35.575Z,1513.13
2018-04-30T13:10:35.572Z,1614.38
2018-04-30T13:11:35.565Z,1507.50
2018-04-30T13:12:35.558Z,1518.75
2018-04-30T13:13:35.551Z,1316.25
2018-04-30T13:14:35.548Z,1299.38
2018-04-30T13:15:35.541Z,1181.25
2018-04-30T13:16:35.533Z,928.13
2018-04-30T13:17:35.530Z,759.38
2018-04-30T13:18:35.527Z,731.25
2018-04-30T13:19:35.523Z,691.88
2018-04-30T13:20:35.514Z,601.88
2018-04-30T13:21:35.509Z,523.13
2018-04-30T13:22:35.501Z,534.38
2018-04-30T13:23:35.493Z,551.25
2018-04-30T13:24:35.488Z,630.00
2018-04-30T13:25:35.480Z,601.88
2018-04-30T13:26:35.479Z,568.13
2018-04-30T13:27:35.469Z,534.38
2018-04-30T13:28:35.514Z,511.88
2018-04-30T13:29:35.459Z,129.38
2018-04-30T13:30:35.454Z,275.63
2018-04-30T13:31:35.451Z,230.63
2018-04-30T13:32:35.444Z,196.88
2018-04-30T13:33:35.438Z,253.13
2018-04-30T13:34:35.429Z,253.13
2018-04-30T13:35:35.418Z,213.75
2018-04-30T13:36:35.414Z,106.88
2018-04-30T13:37:35.404Z,11.25
2018-04-30T13:38:35.398Z,202.50
2018-04-30T13:39:35.387Z,236.25
2018-04-30T13:40:35.383Z,331.88
2018-04-30T13:41:35.376Z,427.50
2018-04-30T13:42:35.364Z,343.13
2018-04-30T13:43:35.407Z,393.75
2018-04-30T13:44:35.347Z,281.25
2018-04-30T13:45:35.339Z,354.38
2018-04-30T13:46:35.329Z,376.88
2018-04-30T13:47:35.323Z,241.88
2018-04-30T13:48:35.317Z,286.88
2018-04-30T13:49:35.308Z,275.63
2018-04-30T13:50:35.303Z,298.13
2018-04-30T13:51:35.286Z,236.25
2018-04-30T13:52:35.284Z,168.75
2018-04-30T13:53:35.267Z,163.13
2018-04-30T13:54:35.325Z,151.88
2018-04-30T13:55:35.250Z,157.50
2018-04-30T13:56:35.236Z,168.75
2018-04-30T13:57:35.230Z,168.75
2018-04-30T13:58:35.234Z,146.25
2018-04-30T13:59:35.213Z,123.75
2018-04-30T14:00:35.201Z,106.88
2018-04-30T14:01:35.188Z,112.50
2018-04-30T14:02:35.178Z,95.63
2018-04-30T14:03:35.169Z,84.38
2018-04-30T14:04:35.159Z,95.63
2018-04-30T14:05:35.151Z,123.75
2018-04-30T14:06:35.142Z,146.25
2018-04-30T14:07:35.124Z,174.38
2018-04-30T14:08:35.115Z,146.25
2018-04-30T14:09:35.108Z,123.75
2018-04-30T14:10:35.093Z,106.88
2018-04-30T14:11:35.092Z,151.88
2018-04-30T14:12:35.074Z,157.50
2018-04-30T14:13:35.067Z,135.00
2018-04-30T14:14:35.056Z,151.88
2018-04-30T14:15:35.048Z,118.13
2018-04-30T14:16:35.038Z,112.50
2018-04-30T14:17:35.033Z,163.13
2018-04-30T14:18:35.014Z,151.88
2018-04-30T14:19:35.004Z,140.63
2018-04-30T14:20:34.998Z,163.13
2018-04-30T14:21:35.014Z,185.63
2018-04-30T14:22:34.977Z,163.13
2018-04-30T14:23:34.968Z,129.38
2018-04-30T14:24:34.956Z,95.63
2018-04-30T14:25:34.941Z,140.63
2018-04-30T14:26:34.929Z,225.00
2018-04-30T14:27:34.923Z,540.00
2018-04-30T14:28:34.919Z,562.50
2018-04-30T14:29:34.896Z,658.13
2018-04-30T14:30:34.887Z,461.25
2018-04-30T14:31:34.898Z,281.25
2018-04-30T14:32:34.869Z,326.25
2018-04-30T14:33:34.855Z,489.38
2018-04-30T14:34:34.845Z,556.88
2018-04-30T14:35:34.833Z,382.50
2018-04-30T14:36:34.824Z,517.50
2018-04-30T14:37:34.823Z,635.63
2018-04-30T14:38:34.800Z,618.75
2018-04-30T14:39:34.789Z,613.13
2018-04-30T14:40:34.781Z,630.00
2018-04-30T14:41:34.768Z,613.13
2018-04-30T14:42:34.759Z,736.88
2018-04-30T14:43:34.752Z,523.13
2018-04-30T14:44:34.746Z,388.13
2018-04-30T14:45:34.725Z,517.50
2018-04-30T14:46:34.716Z,489.38
2018-04-30T14:47:34.704Z,399.38
2018-04-30T14:48:34.695Z,371.25
2018-04-30T14:49:34.686Z,236.25
2018-04-30T14:50:34.678Z,365.63
2018-04-30T14:51:34.663Z,337.50
2018-04-30T14:52:34.656Z,331.88
2018-04-30T14:53:34.640Z,320.63
2018-04-30T14:54:34.633Z,331.88
2018-04-30T14:55:34.621Z,365.63
2018-04-30T14:56:34.608Z,303.75
2018-04-30T14:57:34.599Z,337.50
2018-04-30T14:58:34.591Z,337.50
2018-04-30T14:59:34.578Z,309.38
2018-04-30T15:00:34.567Z,174.38
2018-04-30T15:01:34.555Z,151.88
2018-04-30T15:02:34.549Z,174.38
2018-04-30T15:03:34.535Z,292.50
2018-04-30T15:04:34.523Z,320.63
2018-04-30T15:05:34.521Z,331.88
2018-04-30T15:06:34.505Z,315.00
2018-04-30T15:07:34.492Z,286.88
2018-04-30T15:08:34.482Z,286.88
2018-04-30T15:09:34.477Z,281.25
2018-04-30T15:10:34.460Z,275.63
2018-04-30T15:11:34.452Z,270.00
2018-04-30T15:12:34.440Z,270.00
2018-04-30T15:13:34.431Z,264.38
2018-04-30T15:14:34.416Z,264.38
2018-04-30T15:15:34.419Z,258.75
2018-04-30T15:16:34.401Z,258.75
2018-04-30T15:17:34.387Z,253.13
2018-04-30T15:18:34.375Z,253.13
2018-04-30T15:19:34.451Z,247.50
2018-04-30T15:20:34.358Z,247.50
2018-04-30T15:21:34.343Z,241.88
2018-04-30T15:22:34.358Z,241.88
2018-04-30T15:23:34.323Z,241.88
2018-04-30T15:24:34.315Z,241.88
2018-04-30T15:25:34.299Z,236.25
2018-04-30T15:26:34.297Z,236.25
2018-04-30T15:27:34.280Z,236.25
2018-04-30T15:28:34.269Z,236.25
2018-04-30T15:29:34.263Z,236.25
2018-04-30T15:30:34.255Z,230.63
2018-04-30T15:31:34.238Z,225.00
2018-04-30T15:32:34.228Z,225.00
2018-04-30T15:33:34.217Z,225.00
2018-04-30T15:34:34.206Z,264.38
2018-04-30T15:35:34.207Z,247.50
2018-04-30T15:36:34.188Z,219.38
2018-04-30T15:37:34.171Z,219.38
2018-04-30T15:38:34.164Z,219.38
2018-04-30T15:39:34.152Z,157.50
2018-04-30T15:40:34.139Z,213.75
2018-04-30T15:41:34.133Z,208.13
2018-04-30T15:42:34.119Z,208.13
2018-04-30T15:43:34.111Z,208.13
2018-04-30T15:44:34.096Z,213.75
2018-04-30T15:45:34.092Z,208.13
2018-04-30T15:46:34.088Z,151.88
2018-04-30T15:47:34.079Z,157.50
2018-04-30T15:48:34.053Z,202.50
2018-04-30T15:49:34.043Z,202.50
2018-04-30T15:50:34.034Z,196.88
2018-04-30T15:51:34.023Z,202.50
2018-04-30T15:52:34.017Z,196.88
2018-04-30T15:53:33.999Z,196.88
2018-04-30T15:54:34.027Z,185.63
2018-04-30T15:55:33.977Z,185.63
2018-04-30T15:56:33.971Z,185.63
2018-04-30T15:57:33.956Z,180.00
2018-04-30T15:58:33.953Z,174.38
2018-04-30T15:59:33.937Z,180.00
2018-04-30T16:00:33.923Z,174.38
2018-04-30T16:01:33.912Z,106.88
2018-04-30T16:02:33.901Z,112.50
2018-04-30T16:03:33.890Z,112.50
2018-04-30T16:04:33.956Z,106.88
2018-04-30T16:05:33.876Z,118.13
2018-04-30T16:06:33.858Z,163.13
2018-04-30T16:07:33.847Z,168.75
2018-04-30T16:08:33.835Z,168.75
2018-04-30T16:09:33.823Z,168.75
2018-04-30T16:10:33.817Z,146.25
2018-04-30T16:11:33.801Z,135.00
2018-04-30T16:12:33.793Z,168.75
2018-04-30T16:13:33.781Z,163.13
2018-04-30T16:14:33.767Z,219.38
2018-04-30T16:15:33.757Z,180.00
2018-04-30T16:16:33.747Z,129.38
2018-04-30T16:17:33.734Z,106.88
2018-04-30T16:18:33.724Z,101.25
2018-04-30T16:19:33.710Z,101.25
2018-04-30T16:20:33.699Z,135.00
2018-04-30T16:21:33.692Z,151.88
2018-04-30T16:22:33.679Z,151.88
2018-04-30T16:23:33.666Z,146.25
2018-04-30T16:24:33.655Z,146.25
2018-04-30T16:25:33.647Z,146.25
2018-04-30T16:26:33.631Z,140.63
2018-04-30T16:27:33.621Z,140.63
2018-04-30T16:28:33.609Z,129.38
2018-04-30T16:29:33.598Z,129.38
2018-04-30T16:30:33.591Z,123.75
2018-04-30T16:31:33.576Z,123.75
2018-04-30T16:32:33.564Z,123.75
2018-04-30T16:33:33.555Z,118.13
2018-04-30T16:34:33.549Z,123.75
2018-04-30T16:35:33.532Z,123.75
2018-04-30T16:36:33.517Z,123.75
2018-04-30T16:37:33.508Z,118.13
2018-04-30T16:38:33.504Z,123.75
2018-04-30T16:39:33.506Z,129.38
2018-04-30T16:40:33.477Z,129.38
2018-04-30T16:41:33.460Z,129.38
2018-04-30T16:42:33.451Z,112.50
2018-04-30T16:43:33.442Z,106.88
2018-04-30T16:44:33.428Z,106.88
2018-04-30T16:45:33.412Z,106.88
2018-04-30T16:46:33.403Z,106.88
2018-04-30T16:47:33.392Z,101.25
2018-04-30T16:48:33.381Z,101.25
2018-04-30T16:49:33.369Z,101.25
2018-04-30T16:50:33.358Z,101.25
2018-04-30T16:51:33.346Z,95.63
2018-04-30T16:52:33.334Z,95.63
2018-04-30T16:53:33.326Z,95.63
2018-04-30T16:54:33.314Z,95.63
2018-04-30T16:55:33.303Z,90.00
2018-04-30T16:56:33.290Z,84.38
2018-04-30T16:57:33.276Z,84.38
2018-04-30T16:58:33.334Z,78.75
2018-04-30T16:59:33.269Z,84.38
2018-04-30T17:00:33.241Z,90.00
2018-04-30T17:01:33.227Z,95.63
2018-04-30T17:02:33.219Z,90.00
2018-04-30T17:03:33.205Z,95.63
2018-04-30T17:04:33.196Z,112.50
2018-04-30T17:05:33.187Z,112.50
2018-04-30T17:06:33.171Z,106.88
2018-04-30T17:07:33.162Z,101.25
2018-04-30T17:08:33.147Z,78.75
2018-04-30T17:09:33.133Z,78.75
2018-04-30T17:10:33.196Z,67.50
2018-04-30T17:11:33.118Z,73.13
2018-04-30T17:12:33.101Z,95.63
2018-04-30T17:13:33.088Z,84.38
2018-04-30T17:14:33.078Z,84.38
2018-04-30T17:15:33.068Z,78.75
2018-04-30T17:16:33.052Z,73.13
2018-04-30T17:17:33.051Z,73.13
2018-04-30T17:18:33.033Z,67.50
2018-04-30T17:19:33.021Z,67.50
2018-04-30T17:20:33.007Z,67.50
2018-04-30T17:21:32.995Z,67.50
2018-04-30T17:22:32.985Z,67.50
2018-04-30T17:23:32.972Z,67.50
2018-04-30T17:24:32.957Z,61.88
2018-04-30T17:25:32.947Z,61.88
2018-04-30T17:26:32.934Z,61.88
2018-04-30T17:27:32.922Z,61.88
2018-04-30T17:28:32.914Z,61.88
2018-04-30T17:29:32.905Z,61.88
2018-04-30T17:30:32.990Z,56.25
2018-04-30T17:31:32.877Z,56.25
2018-04-30T17:32:32.863Z,56.25
2018-04-30T17:33:32.851Z,56.25
2018-04-30T17:34:32.841Z,56.25
2018-04-30T17:35:32.827Z,56.25
2018-04-30T17:36:32.840Z,56.25
2018-04-30T17:37:32.800Z,56.25
2018-04-30T17:38:32.790Z,50.63
2018-04-30T17:39:32.782Z,50.63
2018-04-30T17:40:32.768Z,50.63
2018-04-30T17:41:32.755Z,50.63
2018-04-30T17:42:32.740Z,50.63
2018-04-30T17:43:32.733Z,45.00
2018-04-30T17:44:32.716Z,45.00
2018-04-30T17:45:32.704Z,45.00
2018-04-30T17:46:32.695Z,45.00
2018-04-30T17:47:32.678Z,45.00
2018-04-30T17:48:32.666Z,45.00
2018-04-30T17:49:32.663Z,39.38
2018-04-30T17:50:32.648Z,39.38
2018-04-30T17:51:32.629Z,39.38
2018-04-30T17:52:32.618Z,39.38
2018-04-30T17:53:32.605Z,39.38
2018-04-30T17:54:32.593Z,39.38
2018-04-30T17:55:32.587Z,33.75
2018-04-30T17:56:32.570Z,33.75
2018-04-30T17:57:32.557Z,33.75
2018-04-30T17:58:32.543Z,33.75
2018-04-30T17:59:32.539Z,33.75
2018-04-30T18:00:32.522Z,33.75
2018-04-30T18:01:32.508Z,28.13
2018-04-30T18:02:32.496Z,28.13
2018-04-30T18:03:32.483Z,28.13
2018-04-30T18:04:32.471Z,28.13
2018-04-30T18:05:32.459Z,28.13
2018-04-30T18:06:32.450Z,22.50
2018-04-30T18:07:32.432Z,22.50
2018-04-30T18:08:32.428Z,22.50
2018-04-30T18:09:32.409Z,22.50
2018-04-30T18:10:32.397Z,22.50
2018-04-30T18:11:32.393Z,22.50
2018-04-30T18:12:32.374Z,16.88
2018-04-30T18:13:32.361Z,16.88
2018-04-30T18:14:32.348Z,16.88
2018-04-30T18:15:32.337Z,16.88
2018-04-30T18:16:32.324Z,16.88
2018-04-30T18:17:32.310Z,16.88
2018-04-30T18:18:32.296Z,11.25
2018-04-30T18:19:32.285Z,11.25
2018-04-30T18:20:32.272Z,11.25
2018-04-30T18:21:32.259Z,11.25
2018-04-30T18:22:32.248Z,11.25
2018-04-30T18:23:32.235Z,11.25
2018-04-30T18:24:32.222Z,11.25
2018-04-30T18:25:32.208Z,5.63
2018-04-30T18:26:32.250Z,5.63
2018-04-30T18:27:32.185Z,5.63
2018-04-30T18:28:32.177Z,5.63
2018-04-30T18:29:32.167Z,5.63
2018-04-30T18:30:32.147Z,5.63
2018-04-30T18:31:32.132Z,5.63
2018-04-30T18:32:32.120Z,5.63
2018-04-30T18:33:32.107Z,5.63
2018-04-30T18:34:32.101Z,0.00
2018-04-30T18:35:32.088Z,0.00
2018-04-30T18:36:32.082Z,0.00
2018-04-30T18:37:32.059Z,0.00
2018-04-30T18:38:32.045Z,0.00
2018-04-30T18:39:32.038Z,0.00
2018-04-30T18:40:32.023Z,0.00
2018-04-30T18:41:32.013Z,0.00
2018-04-30T18:42:31.995Z,0.00
2018-04-30T18:43:31.982Z,0.00
2018-04-30T18:44:31.979Z,0.00
2018-04-30T18:45:31.955Z,0.00
2018-04-30T18:46:31.943Z,0.00
2018-04-30T18:47:31.929Z,0.00
2018-04-30T18:48:31.921Z,0.00
2018-04-30T18:49:31.905Z,0.00
2018-04-30T18:50:31.893Z,0.00
2018-04-30T18:51:31.880Z,0.00
2018-04-30T18:52:31.867Z,0.00
2018-04-30T18:53:31.855Z,0.00
2018-04-30T18:54:31.840Z,0.00
2018-04-30T18:55:31.840Z,0.00
2018-04-30T18:56:31.815Z,0.00
2018-04-30T18:57:31.801Z,0.00
2018-04-30T18:58:31.788Z,0.00
2018-04-30T18:59:31.775Z,0.00
2018-04-30T19:00:31.761Z,0.00
2018-04-30T19:01:31.768Z,0.00
2018-04-30T19:02:31.781Z,0.00
2018-04-30T19:03:31.723Z,0.00
2018-04-30T19:04:31.716Z,0.00
2018-04-30T19:05:31.698Z,0.00
2018-04-30T19:06:31.685Z,0.00
2018-04-30T19:07:31.673Z,0.00
2018-04-30T19:08:31.653Z,0.00
2018-04-30T19:09:31.646Z,0.00
2018-04-30T19:10:31.635Z,0.00
2018-04-30T19:11:31.617Z,0.00
2018-04-30T19:12:31.602Z,0.00
2018-04-30T19:13:31.591Z,0.00
2018-04-30T19:14:31.597Z,0.00
2018-04-30T19:15:31.563Z,0.00
2018-04-30T19:16:31.548Z,0.00
2018-04-30T19:17:31.535Z,0.00
2018-04-30T19:18:31.528Z,0.00
2018-04-30T19:19:31.507Z,0.00
2018-04-30T19:20:31.500Z,0.00
2018-04-30T19:21:31.478Z,0.00
2018-04-30T19:22:31.474Z,0.00
2018-04-30T19:23:31.452Z,0.00
2018-04-30T19:24:31.439Z,0.00
2018-04-30T19:25:31.431Z,0.00
2018-04-30T19:26:31.415Z,0.00
2018-04-30T19:27:31.396Z,0.00
2018-04-30T19:28:31.382Z,0.00
2018-04-30T19:29:31.371Z,0.00
2018-04-30T19:30:31.356Z,0.00
2018-04-30T19:31:31.346Z,0.00
2018-04-30T19:32:31.328Z,0.00
2018-04-30T19:33:31.318Z,0.00
2018-04-30T19:34:31.306Z,0.00
2018-04-30T19:35:31.285Z,0.00
2018-04-30T19:36:31.275Z,0.00
2018-04-30T19:37:31.257Z,0.00
2018-04-30T19:38:31.243Z,0.00
2018-04-30T19:39:31.228Z,0.00
2018-04-30T19:40:31.220Z,0.00
2018-04-30T19:41:31.202Z,0.00
2018-04-30T19:42:31.191Z,0.00
2018-04-30T19:43:31.169Z,0.00
2018-04-30T19:44:31.158Z,0.00
2018-04-30T19:45:31.168Z,0.00
2018-04-30T19:46:31.128Z,0.00
2018-04-30T19:47:31.113Z,0.00
2018-04-30T19:48:31.106Z,0.00
2018-04-30T19:49:31.085Z,0.00
2018-04-30T19:50:31.071Z,0.00
2018-04-30T19:51:31.060Z,0.00
2018-04-30T19:52:31.107Z,0.00
2018-04-30T19:53:31.029Z,0.00
2018-04-30T19:54:31.017Z,0.00
2018-04-30T19:55:30.996Z,0.00
2018-04-30T19:56:30.982Z,0.00
2018-04-30T19:57:30.966Z,0.00
2018-04-30T19:58:30.951Z,0.00
2018-04-30T19:59:30.944Z,0.00
2018-04-30T20:00:30.924Z,0.00
2018-04-30T20:01:30.905Z,0.00
2018-04-30T20:02:30.892Z,0.00
2018-04-30T20:03:30.881Z,0.00
2018-04-30T20:04:30.864Z,0.00
2018-04-30T20:05:30.844Z,0.00
2018-04-30T20:06:30.832Z,0.00
2018-04-30T20:07:30.828Z,0.00
2018-04-30T20:08:30.807Z,0.00
2018-04-30T20:09:30.789Z,0.00
2018-04-30T20:10:30.772Z,0.00
2018-04-30T20:11:30.764Z,0.00
2018-04-30T20:12:30.743Z,0.00
2018-04-30T20:13:30.751Z,0.00
2018-04-30T20:14:30.762Z,0.00
2018-04-30T20:15:30.702Z,0.00
2018-04-30T20:16:30.685Z,0.00
2018-04-30T20:17:30.666Z,0.00
2018-04-30T20:18:30.662Z,0.00
2018-04-30T20:19:30.638Z,0.00
2018-04-30T20:20:30.705Z,0.00
2018-04-30T20:21:30.609Z,0.00
2018-04-30T20:22:30.590Z,0.00
2018-04-30T20:23:30.578Z,0.00
2018-04-30T20:24:30.564Z,0.00
2018-04-30T20:25:30.546Z,0.00
2018-04-30T20:26:30.532Z,0.00
2018-04-30T20:27:30.517Z,0.00
2018-04-30T20:28:30.501Z,0.00
2018-04-30T20:29:30.485Z,0.00
2018-04-30T20:30:30.471Z,0.00
2018-04-30T20:31:30.458Z,0.00
2018-04-30T20:32:30.439Z,0.00
2018-04-30T20:33:30.421Z,0.00
2018-04-30T20:34:30.404Z,0.00
2018-04-30T20:35:30.393Z,0.00
2018-04-30T20:36:30.377Z,0.00
2018-04-30T20:37:30.361Z,0.00
2018-04-30T20:38:30.350Z,0.00
2018-04-30T20:39:30.341Z,0.00
2018-04-30T20:40:30.313Z,0.00
2018-04-30T20:41:30.293Z,0.00
2018-04-30T20:42:30.279Z,0.00
2018-04-30T20:43:30.283Z,0.00
2018-04-30T20:44:30.343Z,0.00
2018-04-30T20:45:30.236Z,0.00
2018-04-30T20:46:30.214Z,0.00
2018-04-30T20:47:30.205Z,0.00
2018-04-30T20:48:30.186Z,0.00
2018-04-30T20:49:30.167Z,0.00
2018-04-30T20:50:30.239Z,0.00
2018-04-30T20:51:30.138Z,0.00
2018-04-30T20:52:30.120Z,0.00
2018-04-30T20:53:30.104Z,0.00
2018-04-30T20:54:30.089Z,0.00
2018-04-30T20:55:30.076Z,0.00
2018-04-30T20:56:30.062Z,0.00
2018-04-30T20:57:30.042Z,0.00
2018-04-30T20:58:30.027Z,0.00
2018-04-30T20:59:30.011Z,0.00
2018-04-30T21:00:29.995Z,0.00
2018-04-30T21:01:29.980Z,0.00
2018-04-30T21:02:29.969Z,0.00
2018-04-30T21:03:29.947Z,0.00
2018-04-30T21:04:29.929Z,0.00
2018-04-30T21:05:29.915Z,0.00
2018-04-30T21:06:29.910Z,0.00
2018-04-30T21:07:29.882Z,0.00
2018-04-30T21:08:29.868Z,0.00
2018-04-30T21:09:29.903Z,0.00
2018-04-30T21:10:29.836Z,0.00
2018-04-30T21:11:29.821Z,0.00
2018-04-30T21:12:29.805Z,0.00
2018-04-30T21:13:29.789Z,0.00
2018-04-30T21:14:29.779Z,0.00
2018-04-30T21:15:29.757Z,0.00
2018-04-30T21:16:29.740Z,0.00
2018-04-30T21:17:29.809Z,0.00
2018-04-30T21:18:29.707Z,0.00
2018-04-30T21:19:29.691Z,0.00
2018-04-30T21:20:29.677Z,0.00
2018-04-30T21:21:29.659Z,0.00
2018-04-30T21:22:29.643Z,0.00
2018-04-30T21:23:29.632Z,0.00
2018-04-30T21:24:29.696Z,0.00
2018-04-30T21:25:29.599Z,0.00
2018-04-30T21:26:29.583Z,0.00
2018-04-30T21:27:29.568Z,0.00
2018-04-30T21:28:29.549Z,0.00
2018-04-30T21:29:29.542Z,0.00
2018-04-30T21:30:29.514Z,0.00
2018-04-30T21:31:29.502Z,0.00
2018-04-30T21:32:29.485Z,0.00
2018-04-30T21:33:29.470Z,0.00
2018-04-30T21:34:29.547Z,0.00
2018-04-30T21:35:29.435Z,0.00
2018-04-30T21:36:29.421Z,0.00
2018-04-30T21:37:29.402Z,0.00
2018-04-30T21:38:29.393Z,0.00
2018-04-30T21:39:29.372Z,0.00
2018-04-30T21:40:29.366Z,0.00
2018-04-30T21:41:29.350Z,0.00
2018-04-30T21:42:29.323Z,0.00
2018-04-30T21:43:29.311Z,0.00
2018-04-30T21:44:29.291Z,0.00
2018-04-30T21:45:29.273Z,0.00
2018-04-30T21:46:29.258Z,0.00
2018-04-30T21:47:29.256Z,0.00
2018-04-30T21:48:29.231Z,0.00
2018-04-30T21:49:29.210Z,0.00
2018-04-30T21:50:29.194Z,0.00
2018-04-30T21:51:29.177Z,0.00
2018-04-30T21:52:29.161Z,0.00
2018-04-30T21:53:29.144Z,0.00
2018-04-30T21:54:29.128Z,0.00
2018-04-30T21:55:29.114Z,0.00
2018-04-30T21:56:29.096Z,0.00